sensor_id;sensor_type;location;lat;lon;timestamp;pressure;altitude;pressure_sealevel;temperature
9985;BMP180;16737;50.932;6.780;2022-11-15T00:01:07;99617.00;;;14.60
9985;BMP180;16737;50.932;6.780;2022-11-15T00:03:34;99616.00;;;14.60
9985;BMP180;16737;50.932;6.780;2022-11-15T00:06:04;99621.00;;;14.70
9985;BMP180;16737;50.932;6.780;2022-11-15T00:08:32;99613.00;;;14.70
9985;BMP180;16737;50.932;6.780;2022-11-15T00:11:03;99611.00;;;14.70
9985;BMP180;16737;50.932;6.780;2022-11-15T00:13:30;99609.00;;;14.70
9985;BMP180;16737;50.932;6.780;2022-11-15T00:15:59;99617.00;;;14.80
9985;BMP180;16737;50.932;6.780;2022-11-15T00:18:26;99615.00;;;14.80
9985;BMP180;16737;50.932;6.780;2022-11-15T00:20:54;99617.00;;;14.80
9985;BMP180;16737;50.932;6.780;2022-11-15T00:23:21;99596.00;;;14.90
9985;BMP180;16737;50.932;6.780;2022-11-15T00:25:55;99623.00;;;14.90
9985;BMP180;16737;50.932;6.780;2022-11-15T00:28:25;99609.00;;;14.90
9985;BMP180;16737;50.932;6.780;2022-11-15T00:30:53;99619.00;;;15.00
9985;BMP180;16737;50.932;6.780;2022-11-15T00:33:20;99617.00;;;15.00
9985;BMP180;16737;50.932;6.780;2022-11-15T00:35:46;99617.00;;;15.10
9985;BMP180;16737;50.932;6.780;2022-11-15T00:38:13;99618.00;;;15.20
9985;BMP180;16737;50.932;6.780;2022-11-15T00:40:41;99622.00;;;15.20
9985;BMP180;16737;50.932;6.780;2022-11-15T00:43:08;99625.00;;;15.20
9985;BMP180;16737;50.932;6.780;2022-11-15T00:45:36;99612.00;;;15.30
9985;BMP180;16737;50.932;6.780;2022-11-15T00:48:04;99605.00;;;15.30
9985;BMP180;16737;50.932;6.780;2022-11-15T00:50:34;99615.00;;;15.40
9985;BMP180;16737;50.932;6.780;2022-11-15T00:53:01;99615.00;;;15.40
9985;BMP180;16737;50.932;6.780;2022-11-15T00:55:28;99617.00;;;15.50
9985;BMP180;16737;50.932;6.780;2022-11-15T00:57:55;99615.00;;;15.50
9985;BMP180;16737;50.932;6.780;2022-11-15T01:00:22;99609.00;;;15.60
9985;BMP180;16737;50.932;6.780;2022-11-15T01:02:51;99602.00;;;15.60
9985;BMP180;16737;50.932;6.780;2022-11-15T01:05:18;99601.00;;;15.70
9985;BMP180;16737;50.932;6.780;2022-11-15T01:07:45;99607.00;;;15.80
9985;BMP180;16737;50.932;6.780;2022-11-15T01:10:15;99606.00;;;15.80
9985;BMP180;16737;50.932;6.780;2022-11-15T01:12:42;99598.00;;;15.80
9985;BMP180;16737;50.932;6.780;2022-11-15T01:15:09;99604.00;;;15.90
9985;BMP180;16737;50.932;6.780;2022-11-15T01:17:37;99599.00;;;15.90
9985;BMP180;16737;50.932;6.780;2022-11-15T01:20:07;99601.00;;;15.90
9985;BMP180;16737;50.932;6.780;2022-11-15T01:22:34;99595.00;;;15.90
9985;BMP180;16737;50.932;6.780;2022-11-15T01:25:01;99601.00;;;15.90
9985;BMP180;16737;50.932;6.780;2022-11-15T01:27:28;99599.00;;;15.90
9985;BMP180;16737;50.932;6.780;2022-11-15T01:29:55;99600.00;;;15.90
9985;BMP180;16737;50.932;6.780;2022-11-15T01:32:22;99603.00;;;15.90
9985;BMP180;16737;50.932;6.780;2022-11-15T01:34:49;99599.00;;;15.90
9985;BMP180;16737;50.932;6.780;2022-11-15T01:37:17;99593.00;;;15.90
9985;BMP180;16737;50.932;6.780;2022-11-15T01:39:44;99598.00;;;15.90
9985;BMP180;16737;50.932;6.780;2022-11-15T01:42:13;99590.00;;;15.90
9985;BMP180;16737;50.932;6.780;2022-11-15T01:44:44;99584.00;;;15.90
9985;BMP180;16737;50.932;6.780;2022-11-15T01:47:16;99584.00;;;15.90
9985;BMP180;16737;50.932;6.780;2022-11-15T01:49:52;99585.00;;;15.90
9985;BMP180;16737;50.932;6.780;2022-11-15T01:52:26;99586.00;;;15.90
9985;BMP180;16737;50.932;6.780;2022-11-15T01:55:00;99581.00;;;15.80
9985;BMP180;16737;50.932;6.780;2022-11-15T01:57:28;99575.00;;;15.80
9985;BMP180;16737;50.932;6.780;2022-11-15T01:59:57;99555.00;;;15.80
9985;BMP180;16737;50.932;6.780;2022-11-15T02:02:24;99557.00;;;15.80
9985;BMP180;16737;50.932;6.780;2022-11-15T02:04:52;99556.00;;;15.80
9985;BMP180;16737;50.932;6.780;2022-11-15T02:07:23;99567.00;;;15.80
9985;BMP180;16737;50.932;6.780;2022-11-15T02:09:52;99555.00;;;15.80
9985;BMP180;16737;50.932;6.780;2022-11-15T02:12:21;99553.00;;;15.80
9985;BMP180;16737;50.932;6.780;2022-11-15T02:14:53;99547.00;;;15.80
9985;BMP180;16737;50.932;6.780;2022-11-15T02:17:45;99532.00;;;15.80
9985;BMP180;16737;50.932;6.780;2022-11-15T02:20:39;99538.00;;;15.80
9985;BMP180;16737;50.932;6.780;2022-11-15T02:27:21;99535.00;;;15.70
9985;BMP180;16737;50.932;6.780;2022-11-15T02:30:19;99535.00;;;15.70
9985;BMP180;16737;50.932;6.780;2022-11-15T02:32:51;99550.00;;;15.70
9985;BMP180;16737;50.932;6.780;2022-11-15T02:35:30;99539.00;;;15.70
9985;BMP180;16737;50.932;6.780;2022-11-15T02:38:09;99534.00;;;15.60
9985;BMP180;16737;50.932;6.780;2022-11-15T02:40:47;99538.00;;;15.70
9985;BMP180;16737;50.932;6.780;2022-11-15T02:43:24;99529.00;;;15.70
9985;BMP180;16737;50.932;6.780;2022-11-15T02:46:18;99539.00;;;15.70
9985;BMP180;16737;50.932;6.780;2022-11-15T02:48:47;99539.00;;;15.70
9985;BMP180;16737;50.932;6.780;2022-11-15T02:51:16;99529.00;;;15.70
9985;BMP180;16737;50.932;6.780;2022-11-15T02:53:43;99527.00;;;15.80
9985;BMP180;16737;50.932;6.780;2022-11-15T02:56:11;99522.00;;;15.80
9985;BMP180;16737;50.932;6.780;2022-11-15T02:59:10;99525.00;;;15.80
9985;BMP180;16737;50.932;6.780;2022-11-15T03:01:56;99525.00;;;15.90
9985;BMP180;16737;50.932;6.780;2022-11-15T03:04:35;99536.00;;;16.00
9985;BMP180;16737;50.932;6.780;2022-11-15T03:07:11;99526.00;;;16.00
9985;BMP180;16737;50.932;6.780;2022-11-15T03:09:46;99516.00;;;16.00
9985;BMP180;16737;50.932;6.780;2022-11-15T03:12:27;99522.00;;;16.00
9985;BMP180;16737;50.932;6.780;2022-11-15T03:14:59;99519.00;;;16.00
9985;BMP180;16737;50.932;6.780;2022-11-15T03:17:33;99516.00;;;16.00
9985;BMP180;16737;50.932;6.780;2022-11-15T03:20:05;99516.00;;;16.00
9985;BMP180;16737;50.932;6.780;2022-11-15T03:22:37;99515.00;;;16.00
9985;BMP180;16737;50.932;6.780;2022-11-15T03:25:10;99516.00;;;16.00
9985;BMP180;16737;50.932;6.780;2022-11-15T03:27:42;99509.00;;;16.00
9985;BMP180;16737;50.932;6.780;2022-11-15T03:30:11;99493.00;;;16.00
9985;BMP180;16737;50.932;6.780;2022-11-15T03:32:46;99500.00;;;15.90
9985;BMP180;16737;50.932;6.780;2022-11-15T03:35:18;99503.00;;;15.90
9985;BMP180;16737;50.932;6.780;2022-11-15T03:37:51;99511.00;;;15.90
9985;BMP180;16737;50.932;6.780;2022-11-15T03:40:33;99503.00;;;15.90
9985;BMP180;16737;50.932;6.780;2022-11-15T03:43:15;99510.00;;;15.90
9985;BMP180;16737;50.932;6.780;2022-11-15T03:45:51;99505.00;;;16.00
9985;BMP180;16737;50.932;6.780;2022-11-15T03:48:26;99493.00;;;16.00
9985;BMP180;16737;50.932;6.780;2022-11-15T03:50:55;99505.00;;;16.00
9985;BMP180;16737;50.932;6.780;2022-11-15T03:53:23;99500.00;;;16.00
9985;BMP180;16737;50.932;6.780;2022-11-15T03:55:50;99503.00;;;16.10
9985;BMP180;16737;50.932;6.780;2022-11-15T03:58:17;99501.00;;;16.10
9985;BMP180;16737;50.932;6.780;2022-11-15T04:00:43;99490.00;;;16.20
9985;BMP180;16737;50.932;6.780;2022-11-15T04:03:10;99492.00;;;16.20
9985;BMP180;16737;50.932;6.780;2022-11-15T04:05:39;99492.00;;;16.20
9985;BMP180;16737;50.932;6.780;2022-11-15T04:08:06;99487.00;;;16.20
9985;BMP180;16737;50.932;6.780;2022-11-15T04:10:33;99483.00;;;16.20
9985;BMP180;16737;50.932;6.780;2022-11-15T04:13:02;99478.00;;;16.20
9985;BMP180;16737;50.932;6.780;2022-11-15T04:15:29;99481.00;;;16.30
9985;BMP180;16737;50.932;6.780;2022-11-15T04:17:57;99476.00;;;16.30
9985;BMP180;16737;50.932;6.780;2022-11-15T04:20:27;99482.00;;;16.30
9985;BMP180;16737;50.932;6.780;2022-11-15T04:23:16;99475.00;;;16.30
9985;BMP180;16737;50.932;6.780;2022-11-15T04:26:05;99482.00;;;16.30
9985;BMP180;16737;50.932;6.780;2022-11-15T04:28:33;99482.00;;;16.30
9985;BMP180;16737;50.932;6.780;2022-11-15T04:31:00;99483.00;;;16.30
9985;BMP180;16737;50.932;6.780;2022-11-15T04:33:26;99479.00;;;16.30
9985;BMP180;16737;50.932;6.780;2022-11-15T04:35:53;99491.00;;;16.30
9985;BMP180;16737;50.932;6.780;2022-11-15T04:38:39;99487.00;;;16.30
9985;BMP180;16737;50.932;6.780;2022-11-15T04:41:06;99488.00;;;16.30
9985;BMP180;16737;50.932;6.780;2022-11-15T04:43:33;99492.00;;;16.30
9985;BMP180;16737;50.932;6.780;2022-11-15T04:46:00;99480.00;;;16.30
9985;BMP180;16737;50.932;6.780;2022-11-15T04:48:27;99497.00;;;16.40
9985;BMP180;16737;50.932;6.780;2022-11-15T04:50:54;99493.00;;;16.40
9985;BMP180;16737;50.932;6.780;2022-11-15T04:53:21;99496.00;;;16.40
9985;BMP180;16737;50.932;6.780;2022-11-15T04:55:58;99498.00;;;16.50
9985;BMP180;16737;50.932;6.780;2022-11-15T04:58:25;99497.00;;;16.50
9985;BMP180;16737;50.932;6.780;2022-11-15T05:00:52;99498.00;;;16.60
9985;BMP180;16737;50.932;6.780;2022-11-15T05:03:19;99493.00;;;16.60
9985;BMP180;16737;50.932;6.780;2022-11-15T05:06:03;99488.00;;;16.60
9985;BMP180;16737;50.932;6.780;2022-11-15T05:08:30;99490.00;;;16.70
9985;BMP180;16737;50.932;6.780;2022-11-15T05:10:59;99485.00;;;16.70
9985;BMP180;16737;50.932;6.780;2022-11-15T05:13:26;99488.00;;;16.70
9985;BMP180;16737;50.932;6.780;2022-11-15T05:15:53;99494.00;;;16.70
9985;BMP180;16737;50.932;6.780;2022-11-15T05:18:19;99489.00;;;16.70
9985;BMP180;16737;50.932;6.780;2022-11-15T05:20:46;99487.00;;;16.80
9985;BMP180;16737;50.932;6.780;2022-11-15T05:23:13;99499.00;;;16.80
9985;BMP180;16737;50.932;6.780;2022-11-15T05:25:40;99493.00;;;16.90
9985;BMP180;16737;50.932;6.780;2022-11-15T05:28:08;99493.00;;;16.90
9985;BMP180;16737;50.932;6.780;2022-11-15T05:30:35;99497.00;;;16.90
9985;BMP180;16737;50.932;6.780;2022-11-15T05:33:03;99494.00;;;17.00
9985;BMP180;16737;50.932;6.780;2022-11-15T05:35:34;99478.00;;;17.00
9985;BMP180;16737;50.932;6.780;2022-11-15T05:38:03;99499.00;;;17.00
9985;BMP180;16737;50.932;6.780;2022-11-15T05:40:31;99483.00;;;17.00
9985;BMP180;16737;50.932;6.780;2022-11-15T05:43:02;99494.00;;;17.00
9985;BMP180;16737;50.932;6.780;2022-11-15T05:45:33;99496.00;;;17.10
9985;BMP180;16737;50.932;6.780;2022-11-15T05:48:04;99489.00;;;17.10
9985;BMP180;16737;50.932;6.780;2022-11-15T05:50:34;99497.00;;;17.10
9985;BMP180;16737;50.932;6.780;2022-11-15T05:53:03;99491.00;;;17.10
9985;BMP180;16737;50.932;6.780;2022-11-15T05:55:31;99495.00;;;17.10
9985;BMP180;16737;50.932;6.780;2022-11-15T05:57:59;99495.00;;;17.10
9985;BMP180;16737;50.932;6.780;2022-11-15T06:00:26;99501.00;;;17.10
9985;BMP180;16737;50.932;6.780;2022-11-15T06:02:55;99496.00;;;17.00
9985;BMP180;16737;50.932;6.780;2022-11-15T06:05:22;99510.00;;;17.00
9985;BMP180;16737;50.932;6.780;2022-11-15T06:07:48;99500.00;;;17.00
9985;BMP180;16737;50.932;6.780;2022-11-15T06:10:16;99499.00;;;17.00
9985;BMP180;16737;50.932;6.780;2022-11-15T06:12:43;99506.00;;;16.90
9985;BMP180;16737;50.932;6.780;2022-11-15T06:15:13;99504.00;;;16.90
9985;BMP180;16737;50.932;6.780;2022-11-15T06:17:43;99500.00;;;16.80
9985;BMP180;16737;50.932;6.780;2022-11-15T06:20:11;99507.00;;;16.70
9985;BMP180;16737;50.932;6.780;2022-11-15T06:22:41;99509.00;;;16.70
9985;BMP180;16737;50.932;6.780;2022-11-15T06:25:08;99510.00;;;16.70
9985;BMP180;16737;50.932;6.780;2022-11-15T06:27:38;99505.00;;;16.60
9985;BMP180;16737;50.932;6.780;2022-11-15T06:30:06;99507.00;;;16.60
9985;BMP180;16737;50.932;6.780;2022-11-15T06:32:33;99519.00;;;16.50
9985;BMP180;16737;50.932;6.780;2022-11-15T06:35:00;99523.00;;;16.50
9985;BMP180;16737;50.932;6.780;2022-11-15T06:37:28;99519.00;;;16.40
9985;BMP180;16737;50.932;6.780;2022-11-15T06:39:55;99516.00;;;16.40
9985;BMP180;16737;50.932;6.780;2022-11-15T06:42:22;99529.00;;;16.40
9985;BMP180;16737;50.932;6.780;2022-11-15T06:44:49;99531.00;;;16.40
9985;BMP180;16737;50.932;6.780;2022-11-15T06:47:16;99530.00;;;16.40
9985;BMP180;16737;50.932;6.780;2022-11-15T06:49:49;99532.00;;;16.30
9985;BMP180;16737;50.932;6.780;2022-11-15T06:52:16;99541.00;;;16.30
9985;BMP180;16737;50.932;6.780;2022-11-15T06:54:45;99539.00;;;16.30
9985;BMP180;16737;50.932;6.780;2022-11-15T06:57:12;99536.00;;;16.30
9985;BMP180;16737;50.932;6.780;2022-11-15T06:59:42;99542.00;;;16.20
9985;BMP180;16737;50.932;6.780;2022-11-15T07:02:12;99542.00;;;16.20
9985;BMP180;16737;50.932;6.780;2022-11-15T07:04:40;99545.00;;;16.20
9985;BMP180;16737;50.932;6.780;2022-11-15T07:07:07;99551.00;;;16.20
9985;BMP180;16737;50.932;6.780;2022-11-15T07:09:44;99555.00;;;16.20
9985;BMP180;16737;50.932;6.780;2022-11-15T07:12:11;99568.00;;;16.20
9985;BMP180;16737;50.932;6.780;2022-11-15T07:14:39;99563.00;;;16.20
9985;BMP180;16737;50.932;6.780;2022-11-15T07:17:06;99562.00;;;16.20
9985;BMP180;16737;50.932;6.780;2022-11-15T07:19:33;99563.00;;;16.20
9985;BMP180;16737;50.932;6.780;2022-11-15T07:22:00;99564.00;;;16.20
9985;BMP180;16737;50.932;6.780;2022-11-15T07:24:27;99570.00;;;16.20
9985;BMP180;16737;50.932;6.780;2022-11-15T07:26:56;99576.00;;;16.20
9985;BMP180;16737;50.932;6.780;2022-11-15T07:29:22;99575.00;;;16.20
9985;BMP180;16737;50.932;6.780;2022-11-15T07:31:50;99585.00;;;16.20
9985;BMP180;16737;50.932;6.780;2022-11-15T07:34:17;99588.00;;;16.20
9985;BMP180;16737;50.932;6.780;2022-11-15T07:36:44;99598.00;;;16.20
9985;BMP180;16737;50.932;6.780;2022-11-15T07:39:11;99597.00;;;16.20
9985;BMP180;16737;50.932;6.780;2022-11-15T07:41:39;99599.00;;;16.20
9985;BMP180;16737;50.932;6.780;2022-11-15T07:44:08;99590.00;;;16.20
9985;BMP180;16737;50.932;6.780;2022-11-15T07:46:35;99594.00;;;16.20
9985;BMP180;16737;50.932;6.780;2022-11-15T07:49:01;99599.00;;;16.20
9985;BMP180;16737;50.932;6.780;2022-11-15T07:51:29;99590.00;;;16.20
9985;BMP180;16737;50.932;6.780;2022-11-15T07:53:56;99598.00;;;16.20
9985;BMP180;16737;50.932;6.780;2022-11-15T07:56:23;99592.00;;;16.20
9985;BMP180;16737;50.932;6.780;2022-11-15T07:58:50;99598.00;;;16.20
9985;BMP180;16737;50.932;6.780;2022-11-15T08:01:18;99590.00;;;16.20
9985;BMP180;16737;50.932;6.780;2022-11-15T08:03:45;99581.00;;;16.20
9985;BMP180;16737;50.932;6.780;2022-11-15T08:06:12;99584.00;;;16.20
9985;BMP180;16737;50.932;6.780;2022-11-15T08:08:39;99581.00;;;16.20
9985;BMP180;16737;50.932;6.780;2022-11-15T08:11:06;99588.00;;;16.20
9985;BMP180;16737;50.932;6.780;2022-11-15T08:13:33;99582.00;;;16.20
9985;BMP180;16737;50.932;6.780;2022-11-15T08:16:00;99588.00;;;16.20
9985;BMP180;16737;50.932;6.780;2022-11-15T08:18:29;99587.00;;;16.20
9985;BMP180;16737;50.932;6.780;2022-11-15T08:20:59;99596.00;;;16.20
9985;BMP180;16737;50.932;6.780;2022-11-15T08:23:26;99593.00;;;16.20
9985;BMP180;16737;50.932;6.780;2022-11-15T08:26:00;99587.00;;;16.20
9985;BMP180;16737;50.932;6.780;2022-11-15T08:28:29;99576.00;;;16.20
9985;BMP180;16737;50.932;6.780;2022-11-15T08:30:56;99573.00;;;16.20
9985;BMP180;16737;50.932;6.780;2022-11-15T08:33:23;99573.00;;;16.30
9985;BMP180;16737;50.932;6.780;2022-11-15T08:35:52;99567.00;;;16.30
9985;BMP180;16737;50.932;6.780;2022-11-15T08:38:19;99578.00;;;16.30
9985;BMP180;16737;50.932;6.780;2022-11-15T08:40:45;99569.00;;;16.40
9985;BMP180;16737;50.932;6.780;2022-11-15T08:43:13;99566.00;;;16.40
9985;BMP180;16737;50.932;6.780;2022-11-15T08:45:40;99566.00;;;16.50
9985;BMP180;16737;50.932;6.780;2022-11-15T08:48:07;99556.00;;;16.50
9985;BMP180;16737;50.932;6.780;2022-11-15T08:50:34;99560.00;;;16.60
9985;BMP180;16737;50.932;6.780;2022-11-15T08:53:06;99554.00;;;16.60
9985;BMP180;16737;50.932;6.780;2022-11-15T08:55:37;99548.00;;;16.60
9985;BMP180;16737;50.932;6.780;2022-11-15T08:58:04;99556.00;;;16.60
9985;BMP180;16737;50.932;6.780;2022-11-15T09:00:32;99551.00;;;16.60
9985;BMP180;16737;50.932;6.780;2022-11-15T09:02:59;99555.00;;;16.70
9985;BMP180;16737;50.932;6.780;2022-11-15T09:05:26;99554.00;;;16.70
9985;BMP180;16737;50.932;6.780;2022-11-15T09:07:53;99535.00;;;16.70
9985;BMP180;16737;50.932;6.780;2022-11-15T09:10:22;99545.00;;;16.70
9985;BMP180;16737;50.932;6.780;2022-11-15T09:12:49;99547.00;;;16.80
9985;BMP180;16737;50.932;6.780;2022-11-15T09:15:17;99550.00;;;16.80
9985;BMP180;16737;50.932;6.780;2022-11-15T09:17:45;99547.00;;;16.90
9985;BMP180;16737;50.932;6.780;2022-11-15T09:20:12;99551.00;;;16.90
9985;BMP180;16737;50.932;6.780;2022-11-15T09:22:39;99548.00;;;17.00
9985;BMP180;16737;50.932;6.780;2022-11-15T09:25:08;99548.00;;;17.00
9985;BMP180;16737;50.932;6.780;2022-11-15T09:27:36;99555.00;;;17.10
9985;BMP180;16737;50.932;6.780;2022-11-15T09:30:05;99537.00;;;17.10
9985;BMP180;16737;50.932;6.780;2022-11-15T09:32:32;99536.00;;;17.10
9985;BMP180;16737;50.932;6.780;2022-11-15T09:34:59;99530.00;;;17.10
9985;BMP180;16737;50.932;6.780;2022-11-15T09:37:26;99521.00;;;17.10
9985;BMP180;16737;50.932;6.780;2022-11-15T09:39:53;99526.00;;;17.20
9985;BMP180;16737;50.932;6.780;2022-11-15T09:42:40;99526.00;;;17.20
9985;BMP180;16737;50.932;6.780;2022-11-15T09:45:20;99525.00;;;17.20
9985;BMP180;16737;50.932;6.780;2022-11-15T09:48:33;99509.00;;;17.20
9985;BMP180;16737;50.932;6.780;2022-11-15T09:51:08;99497.00;;;17.20
9985;BMP180;16737;50.932;6.780;2022-11-15T09:53:50;99507.00;;;17.20
9985;BMP180;16737;50.932;6.780;2022-11-15T09:56:21;99491.00;;;17.20
9985;BMP180;16737;50.932;6.780;2022-11-15T09:59:01;99489.00;;;17.30
9985;BMP180;16737;50.932;6.780;2022-11-15T10:01:43;99479.00;;;17.30
9985;BMP180;16737;50.932;6.780;2022-11-15T10:04:11;99485.00;;;17.40
9985;BMP180;16737;50.932;6.780;2022-11-15T10:06:46;99474.00;;;17.40
9985;BMP180;16737;50.932;6.780;2022-11-15T10:09:19;99477.00;;;17.50
9985;BMP180;16737;50.932;6.780;2022-11-15T10:11:48;99484.00;;;17.60
9985;BMP180;16737;50.932;6.780;2022-11-15T10:14:20;99486.00;;;17.60
9985;BMP180;16737;50.932;6.780;2022-11-15T10:17:09;99482.00;;;17.70
9985;BMP180;16737;50.932;6.780;2022-11-15T10:19:56;99458.00;;;17.70
9985;BMP180;16737;50.932;6.780;2022-11-15T10:22:28;99466.00;;;17.70
9985;BMP180;16737;50.932;6.780;2022-11-15T10:25:21;99471.00;;;17.70
9985;BMP180;16737;50.932;6.780;2022-11-15T10:27:56;99464.00;;;17.80
9985;BMP180;16737;50.932;6.780;2022-11-15T10:30:33;99464.00;;;17.80
9985;BMP180;16737;50.932;6.780;2022-11-15T10:33:17;99457.00;;;17.90
9985;BMP180;16737;50.932;6.780;2022-11-15T10:35:45;99454.00;;;18.00
9985;BMP180;16737;50.932;6.780;2022-11-15T10:38:12;99418.00;;;18.00
9985;BMP180;16737;50.932;6.780;2022-11-15T10:40:41;99454.00;;;18.10
9985;BMP180;16737;50.932;6.780;2022-11-15T10:43:16;99446.00;;;18.10
9985;BMP180;16737;50.932;6.780;2022-11-15T10:45:46;99442.00;;;18.10
9985;BMP180;16737;50.932;6.780;2022-11-15T10:48:24;99449.00;;;18.20
9985;BMP180;16737;50.932;6.780;2022-11-15T10:50:53;99439.00;;;18.20
9985;BMP180;16737;50.932;6.780;2022-11-15T10:53:27;99424.00;;;18.20
9985;BMP180;16737;50.932;6.780;2022-11-15T10:55:59;99434.00;;;18.30
9985;BMP180;16737;50.932;6.780;2022-11-15T10:58:37;99423.00;;;18.30
9985;BMP180;16737;50.932;6.780;2022-11-15T11:01:19;99426.00;;;18.30
9985;BMP180;16737;50.932;6.780;2022-11-15T11:04:00;99421.00;;;18.40
9985;BMP180;16737;50.932;6.780;2022-11-15T11:06:28;99445.00;;;18.50
9985;BMP180;16737;50.932;6.780;2022-11-15T11:08:58;99416.00;;;18.50
9985;BMP180;16737;50.932;6.780;2022-11-15T11:11:45;99419.00;;;18.50
9985;BMP180;16737;50.932;6.780;2022-11-15T11:14:17;99417.00;;;18.60
9985;BMP180;16737;50.932;6.780;2022-11-15T11:16:50;99412.00;;;18.70
9985;BMP180;16737;50.932;6.780;2022-11-15T11:19:49;99413.00;;;18.60
9985;BMP180;16737;50.932;6.780;2022-11-15T11:22:31;99412.00;;;18.70
9985;BMP180;16737;50.932;6.780;2022-11-15T11:25:19;99406.00;;;18.70
9985;BMP180;16737;50.932;6.780;2022-11-15T11:28:04;99411.00;;;18.70
9985;BMP180;16737;50.932;6.780;2022-11-15T11:30:45;99408.00;;;18.80
9985;BMP180;16737;50.932;6.780;2022-11-15T11:33:19;99403.00;;;18.80
9985;BMP180;16737;50.932;6.780;2022-11-15T11:36:03;99388.00;;;18.90
9985;BMP180;16737;50.932;6.780;2022-11-15T11:38:47;99388.00;;;18.90
9985;BMP180;16737;50.932;6.780;2022-11-15T11:41:37;99396.00;;;19.00
9985;BMP180;16737;50.932;6.780;2022-11-15T11:44:21;99392.00;;;19.00
9985;BMP180;16737;50.932;6.780;2022-11-15T11:46:56;99403.00;;;19.10
9985;BMP180;16737;50.932;6.780;2022-11-15T11:49:35;99409.00;;;19.20
9985;BMP180;16737;50.932;6.780;2022-11-15T11:52:13;99391.00;;;19.30
9985;BMP180;16737;50.932;6.780;2022-11-15T11:54:52;99395.00;;;19.30
9985;BMP180;16737;50.932;6.780;2022-11-15T11:57:33;99389.00;;;19.30
9985;BMP180;16737;50.932;6.780;2022-11-15T12:00:14;99381.00;;;19.30
9985;BMP180;16737;50.932;6.780;2022-11-15T12:02:48;99373.00;;;19.30
9985;BMP180;16737;50.932;6.780;2022-11-15T12:05:27;99364.00;;;19.30
9985;BMP180;16737;50.932;6.780;2022-11-15T12:08:04;99356.00;;;19.30
9985;BMP180;16737;50.932;6.780;2022-11-15T12:10:37;99346.00;;;19.30
9985;BMP180;16737;50.932;6.780;2022-11-15T12:13:11;99339.00;;;19.30
9985;BMP180;16737;50.932;6.780;2022-11-15T12:15:46;99342.00;;;19.30
9985;BMP180;16737;50.932;6.780;2022-11-15T12:18:16;99341.00;;;19.30
9985;BMP180;16737;50.932;6.780;2022-11-15T12:20:56;99338.00;;;19.30
9985;BMP180;16737;50.932;6.780;2022-11-15T12:23:28;99340.00;;;19.20
9985;BMP180;16737;50.932;6.780;2022-11-15T12:26:01;99336.00;;;19.20
9985;BMP180;16737;50.932;6.780;2022-11-15T12:28:38;99323.00;;;19.20
9985;BMP180;16737;50.932;6.780;2022-11-15T12:31:16;99324.00;;;19.10
9985;BMP180;16737;50.932;6.780;2022-11-15T12:33:46;99318.00;;;19.10
9985;BMP180;16737;50.932;6.780;2022-11-15T12:39:08;99276.00;;;19.10
9985;BMP180;16737;50.932;6.780;2022-11-15T12:41:37;99296.00;;;19.10
9985;BMP180;16737;50.932;6.780;2022-11-15T12:44:12;99289.00;;;19.00
9985;BMP180;16737;50.932;6.780;2022-11-15T12:47:01;99285.00;;;19.00
9985;BMP180;16737;50.932;6.780;2022-11-15T12:49:45;99287.00;;;18.90
9985;BMP180;16737;50.932;6.780;2022-11-15T12:52:13;99280.00;;;19.00
9985;BMP180;16737;50.932;6.780;2022-11-15T12:54:57;99281.00;;;18.90
9985;BMP180;16737;50.932;6.780;2022-11-15T12:57:41;99272.00;;;19.00
9985;BMP180;16737;50.932;6.780;2022-11-15T13:00:38;99271.00;;;19.00
9985;BMP180;16737;50.932;6.780;2022-11-15T13:03:27;99258.00;;;19.00
9985;BMP180;16737;50.932;6.780;2022-11-15T13:06:07;99255.00;;;19.00
9985;BMP180;16737;50.932;6.780;2022-11-15T13:08:48;99239.00;;;19.00
9985;BMP180;16737;50.932;6.780;2022-11-15T13:11:52;99241.00;;;19.00
9985;BMP180;16737;50.932;6.780;2022-11-15T13:14:50;99237.00;;;19.00
9985;BMP180;16737;50.932;6.780;2022-11-15T13:17:33;99236.00;;;19.00
9985;BMP180;16737;50.932;6.780;2022-11-15T13:20:22;99231.00;;;18.90
9985;BMP180;16737;50.932;6.780;2022-11-15T13:23:00;99229.00;;;18.90
9985;BMP180;16737;50.932;6.780;2022-11-15T13:26:12;99219.00;;;18.90
9985;BMP180;16737;50.932;6.780;2022-11-15T13:28:46;99219.00;;;18.90
9985;BMP180;16737;50.932;6.780;2022-11-15T13:31:36;99212.00;;;18.90
9985;BMP180;16737;50.932;6.780;2022-11-15T13:34:20;99209.00;;;18.90
9985;BMP180;16737;50.932;6.780;2022-11-15T13:36:49;99205.00;;;18.90
9985;BMP180;16737;50.932;6.780;2022-11-15T13:39:27;99201.00;;;18.80
9985;BMP180;16737;50.932;6.780;2022-11-15T13:41:55;99203.00;;;18.80
9985;BMP180;16737;50.932;6.780;2022-11-15T13:44:26;99200.00;;;18.80
9985;BMP180;16737;50.932;6.780;2022-11-15T13:47:05;99187.00;;;18.70
9985;BMP180;16737;50.932;6.780;2022-11-15T13:49:34;99190.00;;;18.80
9985;BMP180;16737;50.932;6.780;2022-11-15T13:52:04;99185.00;;;18.80
9985;BMP180;16737;50.932;6.780;2022-11-15T13:54:37;99182.00;;;18.80
9985;BMP180;16737;50.932;6.780;2022-11-15T13:57:13;99180.00;;;18.70
9985;BMP180;16737;50.932;6.780;2022-11-15T13:59:49;99177.00;;;18.70
9985;BMP180;16737;50.932;6.780;2022-11-15T14:02:18;99173.00;;;18.70
9985;BMP180;16737;50.932;6.780;2022-11-15T14:04:51;99172.00;;;18.70
9985;BMP180;16737;50.932;6.780;2022-11-15T14:07:21;99158.00;;;18.70
9985;BMP180;16737;50.932;6.780;2022-11-15T14:09:48;99162.00;;;18.70
9985;BMP180;16737;50.932;6.780;2022-11-15T14:12:30;99149.00;;;18.60
9985;BMP180;16737;50.932;6.780;2022-11-15T14:15:01;99137.00;;;18.60
9985;BMP180;16737;50.932;6.780;2022-11-15T14:17:38;99140.00;;;18.60
9985;BMP180;16737;50.932;6.780;2022-11-15T14:20:27;99140.00;;;18.50
9985;BMP180;16737;50.932;6.780;2022-11-15T14:22:58;99136.00;;;18.50
9985;BMP180;16737;50.932;6.780;2022-11-15T14:25:26;99133.00;;;18.50
9985;BMP180;16737;50.932;6.780;2022-11-15T14:28:31;99127.00;;;18.40
9985;BMP180;16737;50.932;6.780;2022-11-15T14:31:11;99131.00;;;18.40
9985;BMP180;16737;50.932;6.780;2022-11-15T14:33:39;99128.00;;;18.40
9985;BMP180;16737;50.932;6.780;2022-11-15T14:36:13;99120.00;;;18.40
9985;BMP180;16737;50.932;6.780;2022-11-15T14:38:41;99120.00;;;18.40
9985;BMP180;16737;50.932;6.780;2022-11-15T14:41:19;99112.00;;;18.30
9985;BMP180;16737;50.932;6.780;2022-11-15T14:43:47;99107.00;;;18.30
9985;BMP180;16737;50.932;6.780;2022-11-15T14:46:16;99100.00;;;18.30
9985;BMP180;16737;50.932;6.780;2022-11-15T14:48:44;99069.00;;;18.30
9985;BMP180;16737;50.932;6.780;2022-11-15T14:51:14;99082.00;;;18.20
9985;BMP180;16737;50.932;6.780;2022-11-15T14:53:43;99078.00;;;18.20
9985;BMP180;16737;50.932;6.780;2022-11-15T14:56:11;99081.00;;;18.20
9985;BMP180;16737;50.932;6.780;2022-11-15T14:58:38;99079.00;;;18.20